createdAt,value
2019-03-22T00:00:32.986Z,102335.62
2019-03-22T00:01:38.461Z,102338.80
2019-03-22T00:02:44.117Z,102337.09
2019-03-22T00:03:49.685Z,102341.62
2019-03-22T00:04:55.217Z,102334.89
2019-03-22T00:06:02.458Z,102328.16
2019-03-22T00:07:07.855Z,102330.85
2019-03-22T00:08:13.346Z,102334.03
2019-03-22T00:09:20.593Z,102325.59
2019-03-22T00:10:26.021Z,102324.25
2019-03-22T00:11:31.586Z,102328.29
2019-03-22T00:12:38.533Z,102323.89
2019-03-22T00:13:44.147Z,102327.44
2019-03-22T00:14:50.170Z,102323.89
2019-03-22T00:15:58.338Z,102327.44
2019-03-22T00:17:06.353Z,102326.58
2019-03-22T00:18:12.779Z,102330.62
2019-03-22T00:19:20.437Z,102334.66
2019-03-22T00:20:26.858Z,102326.58
2019-03-22T00:21:33.057Z,102327.20
2019-03-22T00:22:39.158Z,102324.63
2019-03-22T00:23:45.872Z,102330.50
2019-03-22T00:24:52.746Z,102333.19
2019-03-22T00:25:59.049Z,102333.19
2019-03-22T00:27:15.933Z,102331.84
2019-03-22T00:28:14.178Z,102335.88
2019-03-22T00:29:20.339Z,102335.88
2019-03-22T00:30:26.280Z,102336.01
2019-03-22T00:31:31.748Z,102337.35
2019-03-22T00:32:37.270Z,102341.02
2019-03-22T00:33:42.762Z,102341.02
2019-03-22T00:34:48.289Z,102334.79
2019-03-22T00:35:55.386Z,102342.37
2019-03-22T00:37:00.838Z,102345.91
2019-03-22T00:38:06.400Z,102337.63
2019-03-22T00:39:11.979Z,102335.80
2019-03-22T00:40:17.533Z,102335.80
2019-03-22T00:41:22.957Z,102335.80
2019-03-22T00:42:28.729Z,102337.63
2019-03-22T00:43:34.269Z,102340.81
2019-03-22T00:44:40.578Z,102339.96
2019-03-22T00:45:46.740Z,102343.14
2019-03-22T00:46:53.949Z,102339.11
2019-03-22T00:48:01.663Z,102338.13
2019-03-22T00:49:07.908Z,102341.30
2019-03-22T00:50:15.078Z,102343.63
2019-03-22T00:51:22.069Z,102345.47
2019-03-22T00:52:28.499Z,102347.79
2019-03-22T00:53:34.669Z,102350.48
2019-03-22T00:54:41.518Z,102347.79
2019-03-22T00:55:47.655Z,102355.00
2019-03-22T00:56:55.239Z,102352.31
2019-03-22T00:58:01.798Z,102347.42
2019-03-22T00:59:08.179Z,102349.75
2019-03-22T01:00:16.120Z,102346.20
2019-03-22T01:01:21.890Z,102340.83
2019-03-22T01:02:27.465Z,102337.64
2019-03-22T01:03:33.051Z,102345.84
2019-03-22T01:04:38.636Z,102339.11
2019-03-22T01:05:44.140Z,102345.35
2019-03-22T01:06:50.219Z,102344.98
2019-03-22T01:07:56.628Z,102344.98
2019-03-22T01:09:03.020Z,102347.67
2019-03-22T01:10:15.619Z,102344.98
2019-03-22T01:11:21.591Z,102334.72
2019-03-22T01:12:27.549Z,102330.31
2019-03-22T01:13:33.928Z,102330.68
2019-03-22T01:14:40.883Z,102335.20
2019-03-22T01:15:47.490Z,102333.49
2019-03-22T01:16:53.725Z,102335.70
2019-03-22T01:17:59.876Z,102338.02
2019-03-22T01:19:06.524Z,102345.59
2019-03-22T01:20:13.758Z,102340.22
2019-03-22T01:21:21.752Z,102335.33
2019-03-22T01:22:28.546Z,102339.36
2019-03-22T01:23:35.115Z,102339.36
2019-03-22T01:24:41.577Z,102343.40
2019-03-22T01:25:48.513Z,102336.67
2019-03-22T01:26:55.404Z,102333.12
2019-03-22T01:28:02.406Z,102337.16
2019-03-22T01:29:08.346Z,102344.38
2019-03-22T01:30:20.933Z,102341.20
2019-03-22T01:31:26.879Z,102346.21
2019-03-22T01:32:32.667Z,102340.47
2019-03-22T01:33:38.157Z,102341.81
2019-03-22T01:34:43.871Z,102341.33
2019-03-22T01:35:49.496Z,102337.77
2019-03-22T01:36:55.294Z,102343.16
2019-03-22T01:38:01.602Z,102345.84
2019-03-22T01:39:07.927Z,102337.41
2019-03-22T01:40:15.406Z,102332.89
2019-03-22T01:41:21.346Z,102340.10
2019-03-22T01:42:26.924Z,102333.02
2019-03-22T01:43:53.567Z,102331.17
2019-03-22T01:44:59.205Z,102338.39
2019-03-22T01:46:05.467Z,102348.17
2019-03-22T01:47:14.018Z,102347.80
2019-03-22T01:48:20.314Z,102345.11
2019-03-22T01:49:26.778Z,102333.02
2019-03-22T01:50:33.367Z,102339.73
2019-03-22T01:51:39.872Z,102336.68
2019-03-22T01:52:46.159Z,102343.03
2019-03-22T01:53:52.170Z,102341.70
2019-03-22T01:55:00.667Z,102346.09
2019-03-22T01:56:07.209Z,102341.70
2019-03-22T01:57:14.068Z,102339.00
2019-03-22T01:58:20.923Z,102341.70
2019-03-22T01:59:27.720Z,102337.66
2019-03-22T02:00:35.651Z,102333.26
2019-03-22T02:01:41.243Z,102331.91
2019-03-22T02:02:46.838Z,102334.11
2019-03-22T02:03:52.901Z,102332.28
2019-03-22T02:04:59.720Z,102329.22
2019-03-22T02:06:05.581Z,102329.71
2019-03-22T02:07:11.390Z,102332.89
2019-03-22T02:08:17.442Z,102335.58
2019-03-22T02:09:25.851Z,102336.56
2019-03-22T02:10:31.418Z,102328.86
2019-03-22T02:11:37.219Z,102329.34
2019-03-22T02:12:44.641Z,102324.95
2019-03-22T02:13:50.531Z,102324.45
2019-03-22T02:14:58.095Z,102325.31
2019-03-22T02:16:05.273Z,102329.34
2019-03-22T02:17:11.762Z,102321.28
2019-03-22T02:18:18.321Z,102318.22
2019-03-22T02:19:24.883Z,102314.68
2019-03-22T02:20:31.667Z,102310.52
2019-03-22T02:21:37.897Z,102312.35
2019-03-22T02:22:44.666Z,102316.39
2019-03-22T02:23:52.239Z,102322.26
2019-03-22T02:24:58.684Z,102324.95
2019-03-22T02:26:05.987Z,102324.09
2019-03-22T02:27:12.474Z,102333.02
2019-03-22T02:28:18.867Z,102330.81
2019-03-22T02:29:25.474Z,102333.02
2019-03-22T02:30:31.747Z,102322.38
2019-03-22T02:31:37.280Z,102329.11
2019-03-22T02:32:42.785Z,102329.11
2019-03-22T02:33:49.040Z,102330.45
2019-03-22T02:34:56.470Z,102330.45
2019-03-22T02:36:02.260Z,102336.32
2019-03-22T02:37:08.160Z,102342.55
2019-03-22T02:38:14.391Z,102344.87
2019-03-22T02:39:20.034Z,102341.33
2019-03-22T02:40:26.140Z,102353.80
2019-03-22T02:41:31.979Z,102350.62
2019-03-22T02:42:37.590Z,102351.23
2019-03-22T02:43:44.751Z,102355.14
2019-03-22T02:44:50.245Z,102349.40
2019-03-22T02:45:55.809Z,102352.95
2019-03-22T02:47:02.180Z,102346.22
2019-03-22T02:48:09.768Z,102349.89
2019-03-22T02:49:18.070Z,102349.89
2019-03-22T02:50:24.277Z,102357.47
2019-03-22T02:51:30.218Z,102359.79
2019-03-22T02:52:36.247Z,102360.64
2019-03-22T02:53:42.670Z,102360.64
2019-03-22T02:54:49.699Z,102359.79
2019-03-22T02:55:56.931Z,102361.99
2019-03-22T02:57:02.791Z,102364.31
2019-03-22T02:58:20.370Z,102369.20
2019-03-22T02:59:16.904Z,102373.73
2019-03-22T03:00:22.757Z,102368.47
2019-03-22T03:01:28.329Z,102385.83
2019-03-22T03:02:34.099Z,102380.09
2019-03-22T03:03:39.640Z,102376.05
2019-03-22T03:04:45.366Z,102383.63
2019-03-22T03:05:51.441Z,102382.28
2019-03-22T03:06:57.030Z,102383.75
2019-03-22T03:08:02.621Z,102383.75
2019-03-22T03:09:08.500Z,102387.78
2019-03-22T03:10:16.005Z,102389.13
2019-03-22T03:11:23.432Z,102392.31
2019-03-22T03:12:29.428Z,102396.83
2019-03-22T03:13:35.141Z,102404.90
2019-03-22T03:14:41.052Z,102399.52
2019-03-22T03:15:47.260Z,102409.42
2019-03-22T03:16:53.430Z,102412.97
2019-03-22T03:18:01.032Z,102408.94
2019-03-22T03:19:07.060Z,102419.20
2019-03-22T03:20:15.919Z,102424.21
2019-03-22T03:21:22.271Z,102427.75
2019-03-22T03:22:29.328Z,102424.36
2019-03-22T03:23:35.849Z,102427.39
2019-03-22T03:24:42.440Z,102435.95
2019-03-22T03:25:49.313Z,102443.53
2019-03-22T03:26:55.951Z,102438.64
2019-03-22T03:28:02.760Z,102446.70
2019-03-22T03:29:11.050Z,102446.22
2019-03-22T03:30:22.323Z,102448.91
2019-03-22T03:31:29.691Z,102451.26
2019-03-22T03:32:35.549Z,102451.26
2019-03-22T03:33:43.260Z,102446.37
2019-03-22T03:34:49.313Z,102445.88
2019-03-22T03:35:55.549Z,102448.05
2019-03-22T03:37:01.548Z,102450.40
2019-03-22T03:38:09.260Z,102453.58
2019-03-22T03:39:14.739Z,102458.95
2019-03-22T03:40:20.298Z,102460.15
2019-03-22T03:41:25.819Z,102447.34
2019-03-22T03:42:31.277Z,102447.71
2019-03-22T03:43:37.436Z,102446.86
2019-03-22T03:44:43.389Z,102443.80
2019-03-22T03:45:49.279Z,102443.68
2019-03-22T03:46:56.042Z,102446.86
2019-03-22T03:48:04.544Z,102452.60
2019-03-22T03:49:11.190Z,102448.69
2019-03-22T03:50:17.797Z,102455.41
2019-03-22T03:51:25.570Z,102461.65
2019-03-22T03:52:32.321Z,102458.59
2019-03-22T03:53:38.839Z,102454.06
2019-03-22T03:54:45.093Z,102455.90
2019-03-22T03:55:51.900Z,102460.30
2019-03-22T03:56:59.271Z,102467.14
2019-03-22T03:58:06.025Z,102454.92
2019-03-22T03:59:13.919Z,102453.21
2019-03-22T04:00:20.640Z,102453.70
2019-03-22T04:01:26.890Z,102454.55
2019-03-22T04:02:32.393Z,102459.94
2019-03-22T04:03:38.149Z,102456.27
2019-03-22T04:04:44.039Z,102449.18
2019-03-22T04:05:49.556Z,102450.52
2019-03-22T04:06:56.882Z,102438.05
2019-03-22T04:08:02.641Z,102442.94
2019-03-22T04:09:09.142Z,102439.40
2019-03-22T04:10:16.546Z,102442.58
2019-03-22T04:11:24.526Z,102435.36
2019-03-22T04:12:32.560Z,102429.13
2019-03-22T04:13:39.046Z,102438.05
2019-03-22T04:14:46.577Z,102431.33
2019-03-22T04:15:52.612Z,102438.54
2019-03-22T04:16:59.197Z,102439.40
2019-03-22T04:18:05.671Z,102439.40
2019-03-22T04:19:12.482Z,102443.92
2019-03-22T04:20:18.511Z,102459.56
2019-03-22T04:21:24.654Z,102455.16
2019-03-22T04:22:31.401Z,102456.51
2019-03-22T04:23:38.107Z,102463.23
2019-03-22T04:24:44.431Z,102466.41
2019-03-22T04:25:52.318Z,102467.27
2019-03-22T04:26:58.720Z,102466.89
2019-03-22T04:28:06.401Z,102467.27
2019-03-22T04:29:12.351Z,102468.23
2019-03-22T04:30:20.071Z,102469.59
2019-03-22T04:31:26.408Z,102474.96
2019-03-22T04:32:31.932Z,102467.88
2019-03-22T04:33:38.110Z,102475.81
2019-03-22T04:34:43.777Z,102471.05
2019-03-22T04:35:49.939Z,102473.25
2019-03-22T04:36:56.380Z,102476.42
2019-03-22T04:38:02.283Z,102484.37
2019-03-22T04:39:10.243Z,102481.80
2019-03-22T04:40:27.834Z,102479.97
2019-03-22T04:41:33.311Z,102466.16
2019-03-22T04:42:40.710Z,102470.19
2019-03-22T04:43:48.561Z,102465.79
2019-03-22T04:44:54.470Z,102467.50
2019-03-22T04:46:00.324Z,102482.78
2019-03-22T04:47:06.138Z,102481.92
2019-03-22T04:48:25.777Z,102484.61
2019-03-22T04:49:31.700Z,102479.23
2019-03-22T04:50:40.121Z,102476.17
2019-03-22T04:51:46.895Z,102476.55
2019-03-22T04:52:53.790Z,102479.60
2019-03-22T04:54:00.311Z,102487.30
2019-03-22T04:55:06.508Z,102480.58
2019-03-22T04:56:13.880Z,102486.93
2019-03-22T04:57:20.281Z,102490.36
2019-03-22T04:58:26.591Z,102494.88
2019-03-22T05:00:38.591Z,102501.23
2019-03-22T05:01:44.633Z,102499.41
2019-03-22T05:03:14.980Z,102501.72
2019-03-22T05:04:32.058Z,102498.06
2019-03-22T05:05:47.631Z,102500.75
2019-03-22T05:06:53.839Z,102496.34
2019-03-22T05:07:59.481Z,102505.27
2019-03-22T05:09:07.969Z,102514.19
2019-03-22T05:10:15.006Z,102515.16
2019-03-22T05:11:20.972Z,102510.16
2019-03-22T05:12:26.669Z,102505.38
2019-03-22T05:13:32.772Z,102511.13
2019-03-22T05:14:39.571Z,102502.70
2019-03-22T05:15:45.478Z,102508.93
2019-03-22T05:16:52.842Z,102509.78
2019-03-22T05:18:00.991Z,102510.77
2019-03-22T05:19:07.602Z,102513.94
2019-03-22T05:20:15.230Z,102513.45
2019-03-22T05:21:21.719Z,102519.69
2019-03-22T05:22:28.433Z,102515.66
2019-03-22T05:23:35.471Z,102514.80
2019-03-22T05:24:41.951Z,102516.51
2019-03-22T05:25:48.262Z,102516.14
2019-03-22T05:26:55.772Z,102514.31
2019-03-22T05:28:01.871Z,102522.86
2019-03-22T05:29:07.910Z,102522.00
2019-03-22T05:30:27.594Z,102526.04
2019-03-22T05:31:52.263Z,102530.93
2019-03-22T05:32:58.088Z,102526.53
2019-03-22T05:34:04.019Z,102535.82
2019-03-22T05:35:10.058Z,102534.96
2019-03-22T05:36:16.001Z,102530.44
2019-03-22T05:37:23.742Z,102529.22
2019-03-22T05:38:29.742Z,102530.93
2019-03-22T05:39:35.482Z,102538.51
2019-03-22T05:40:41.043Z,102540.34
2019-03-22T05:41:46.552Z,102548.41
2019-03-22T05:42:52.602Z,102548.03
2019-03-22T05:43:58.632Z,102542.66
2019-03-22T05:45:06.114Z,102546.32
2019-03-22T05:46:12.184Z,102548.52
2019-03-22T05:47:20.239Z,102551.58
2019-03-22T05:48:26.800Z,102553.41
2019-03-22T05:49:34.936Z,102557.45
2019-03-22T05:50:41.291Z,102555.25
2019-03-22T05:51:48.401Z,102553.91
2019-03-22T05:52:55.073Z,102551.21
2019-03-22T05:54:01.393Z,102550.23
2019-03-22T05:55:08.479Z,102552.56
2019-03-22T05:56:14.649Z,102553.91
2019-03-22T05:57:21.247Z,102556.10
2019-03-22T05:58:29.316Z,102565.52
2019-03-22T05:59:42.365Z,102569.17
2019-03-22T06:00:43.457Z,102571.75
2019-03-22T06:01:49.086Z,102564.66
2019-03-22T06:02:56.147Z,102568.32
2019-03-22T06:04:01.695Z,102571.75
2019-03-22T06:05:08.496Z,102569.17
2019-03-22T06:06:16.083Z,102576.64
2019-03-22T06:07:21.757Z,102579.93
2019-03-22T06:08:28.576Z,102582.63
2019-03-22T06:09:34.370Z,102571.01
2019-03-22T06:10:41.306Z,102565.14
2019-03-22T06:11:47.355Z,102561.59
2019-03-22T06:12:56.652Z,102566.48
2019-03-22T06:14:02.147Z,102559.28
2019-03-22T06:15:11.029Z,102555.25
2019-03-22T06:16:16.789Z,102558.42
2019-03-22T06:17:23.133Z,102558.91
2019-03-22T06:18:29.140Z,102567.34
2019-03-22T06:19:35.677Z,102561.11
2019-03-22T06:20:42.724Z,102566.86
2019-03-22T06:21:50.051Z,102571.75
2019-03-22T06:22:56.427Z,102580.67
2019-03-22T06:24:02.701Z,102586.54
2019-03-22T06:25:09.445Z,102582.50
2019-03-22T06:26:16.279Z,102580.30
2019-03-22T06:27:23.045Z,102588.73
2019-03-22T06:28:29.069Z,102585.19
2019-03-22T06:29:35.398Z,102587.03
2019-03-22T06:30:43.537Z,102589.23
2019-03-22T06:31:48.997Z,102593.75
2019-03-22T06:32:56.987Z,102599.50
2019-03-22T06:34:10.598Z,102603.16
2019-03-22T06:35:35.595Z,102599.50
2019-03-22T06:36:41.728Z,102592.77
2019-03-22T06:37:47.518Z,102592.41
2019-03-22T06:38:53.836Z,102595.09
2019-03-22T06:39:59.824Z,102594.61
2019-03-22T06:41:07.837Z,102594.12
2019-03-22T06:42:13.836Z,102592.77
2019-03-22T06:43:20.851Z,102585.19
2019-03-22T06:44:26.743Z,102584.34
2019-03-22T06:45:34.589Z,102587.88
2019-03-22T06:46:40.917Z,102588.73
2019-03-22T06:47:47.285Z,102588.25
2019-03-22T06:48:55.758Z,102586.42
2019-03-22T06:50:02.197Z,102590.45
2019-03-22T06:51:08.858Z,102584.94
2019-03-22T06:52:15.226Z,102587.69
2019-03-22T06:53:21.373Z,102589.44
2019-03-22T06:54:31.820Z,102586.75
2019-03-22T06:55:35.485Z,102587.60
2019-03-22T07:00:17.063Z,102588.46
2019-03-22T07:01:22.659Z,102597.50
2019-03-22T07:02:30.181Z,102600.64
2019-03-22T07:03:35.838Z,102605.08
2019-03-22T07:04:41.818Z,102602.87
2019-03-22T07:05:47.658Z,102610.05
2019-03-22T07:06:53.746Z,102609.59
2019-03-22T07:08:01.218Z,102608.70
2019-03-22T07:09:08.779Z,102608.70
2019-03-22T07:13:47.520Z,102611.39
2019-03-22T07:14:53.781Z,102611.02
2019-03-22T07:19:32.939Z,102611.02
2019-03-22T07:20:38.899Z,102624.84
2019-03-22T07:25:18.820Z,102617.38
2019-03-22T07:26:24.622Z,102620.92
2019-03-22T07:27:32.819Z,102620.55
2019-03-22T07:28:39.140Z,102623.61
2019-03-22T07:29:46.387Z,102628.12
2019-03-22T07:30:52.535Z,102630.33
2019-03-22T07:31:58.263Z,102638.77
2019-03-22T07:33:03.920Z,102636.19
2019-03-22T07:34:09.859Z,102645.12
2019-03-22T07:35:15.699Z,102639.73
2019-03-22T07:36:21.539Z,102642.43
2019-03-22T07:37:27.188Z,102638.40
2019-03-22T07:42:08.106Z,102643.77
2019-03-22T07:43:13.640Z,102637.91
2019-03-22T07:44:19.140Z,102647.32
2019-03-22T07:45:25.380Z,102648.66
2019-03-22T07:46:31.748Z,102648.17
2019-03-22T07:47:37.899Z,102649.52
2019-03-22T07:48:44.400Z,102654.90
2019-03-22T07:53:24.000Z,102656.65
2019-03-22T07:54:30.028Z,102648.66
2019-03-22T07:55:36.487Z,102639.63
2019-03-22T07:56:43.099Z,102644.14
2019-03-22T07:57:51.070Z,102646.34
2019-03-22T07:58:57.864Z,102649.03
2019-03-22T08:00:06.301Z,102645.89
2019-03-22T08:01:13.321Z,102647.69
2019-03-22T08:02:19.148Z,102651.27
2019-03-22T08:03:25.121Z,102645.89
2019-03-22T08:04:30.941Z,102647.23
2019-03-22T08:05:36.803Z,102651.64
2019-03-22T08:06:42.620Z,102649.44
2019-03-22T08:07:48.380Z,102651.16
2019-03-22T08:08:54.280Z,102653.73
2019-03-22T08:10:00.297Z,102658.52
2019-03-22T08:11:06.121Z,102657.16
2019-03-22T08:12:12.049Z,102650.44
2019-03-22T08:13:18.082Z,102657.53
2019-03-22T08:14:24.041Z,102653.87
2019-03-22T08:15:31.905Z,102647.16
2019-03-22T08:16:37.959Z,102648.87
2019-03-22T08:17:43.967Z,102649.73
2019-03-22T08:18:51.261Z,102650.59
2019-03-22T08:19:57.968Z,102649.61
2019-03-22T08:21:03.862Z,102654.50
2019-03-22T08:22:11.163Z,102650.47
2019-03-22T08:23:23.216Z,102641.06
2019-03-22T08:24:28.962Z,102642.29
2019-03-22T08:25:35.179Z,102634.22
2019-03-22T08:26:42.312Z,102633.25
2019-03-22T08:27:49.343Z,102627.87
2019-03-22T08:28:55.733Z,102628.73
